createdAt,value
2018-09-26T04:54:12.641Z,3.70
2018-09-26T04:59:15.351Z,3.80
2018-09-26T05:04:10.116Z,3.90
2018-09-26T05:09:07.717Z,3.90
2018-09-26T05:14:06.670Z,4.00
2018-09-26T05:19:05.940Z,4.00
2018-09-26T05:24:01.376Z,4.10
2018-09-26T05:28:57.871Z,4.20
2018-09-26T05:33:53.088Z,4.40
2018-09-26T05:38:55.579Z,4.80
2018-09-26T05:43:50.254Z,5.50
2018-09-26T05:48:45.207Z,7.50
2018-09-26T05:53:40.050Z,7.10
2018-09-26T05:58:35.786Z,6.90
2018-09-26T06:03:31.037Z,7.00
2018-09-26T06:08:24.863Z,6.60
2018-09-26T06:13:23.260Z,6.90
2018-09-26T06:18:17.575Z,7.00
2018-09-26T06:23:13.463Z,7.30
2018-09-26T06:28:08.145Z,7.60
2018-09-26T06:33:14.000Z,8.00
2018-09-26T06:38:09.425Z,8.30
2018-09-26T06:43:12.298Z,8.30
2018-09-26T06:48:17.137Z,8.30
2018-09-26T06:53:14.966Z,8.20
2018-09-26T06:58:10.437Z,8.10
2018-09-26T07:03:06.478Z,8.50
2018-09-26T07:08:01.142Z,8.40
2018-09-26T07:13:03.289Z,9.10
2018-09-26T07:17:57.698Z,9.70
2018-09-26T07:22:52.788Z,10.20
2018-09-26T07:27:49.256Z,10.30
2018-09-26T07:32:55.516Z,10.50
2018-09-26T07:37:51.559Z,11.90
2018-09-26T07:43:00.707Z,14.00
2018-09-26T07:47:55.921Z,16.10
2018-09-26T07:52:51.854Z,16.60
2018-09-26T07:57:53.760Z,17.50
2018-09-26T08:02:50.196Z,17.70
2018-09-26T08:07:47.321Z,17.60
2018-09-26T08:12:42.634Z,18.90
2018-09-26T08:17:38.337Z,19.40
2018-09-26T08:22:33.910Z,18.70
2018-09-26T08:27:29.849Z,19.40
2018-09-26T08:32:25.109Z,17.70
2018-09-26T08:37:20.424Z,16.70
2018-09-26T08:43:31.164Z,16.00
2018-09-26T08:48:27.280Z,15.60
2018-09-26T08:53:22.729Z,15.70
2018-09-26T08:58:18.309Z,16.50
2018-09-26T09:03:13.677Z,16.40
2018-09-26T09:08:11.265Z,17.90
2018-09-26T09:13:08.565Z,22.10
2018-09-26T09:18:05.434Z,23.00
2018-09-26T09:23:00.554Z,22.80
2018-09-26T09:27:55.697Z,23.50
2018-09-26T09:32:50.353Z,24.50
2018-09-26T09:37:45.528Z,25.50
2018-09-26T09:42:41.915Z,26.80
2018-09-26T09:47:37.055Z,29.00
2018-09-26T09:52:32.116Z,29.10
2018-09-26T09:57:29.826Z,30.10
2018-09-26T10:02:24.917Z,28.30
2018-09-26T10:07:20.535Z,27.60
2018-09-26T10:12:33.274Z,27.20
2018-09-26T10:17:31.735Z,28.60
2018-09-26T10:22:35.987Z,28.10
2018-09-26T10:27:31.126Z,28.50
2018-09-26T10:32:28.983Z,27.40
2018-09-26T10:37:24.796Z,27.60
2018-09-26T10:42:20.283Z,27.00
2018-09-26T10:47:15.222Z,25.70
2018-09-26T10:52:11.361Z,25.30
2018-09-26T10:57:08.013Z,25.90
2018-09-26T11:02:06.547Z,25.50
2018-09-26T11:07:01.083Z,24.40
2018-09-26T11:11:55.253Z,23.00
2018-09-26T11:16:51.364Z,22.30
2018-09-26T11:21:46.322Z,22.20
2018-09-26T11:26:43.008Z,21.50
2018-09-26T11:31:37.718Z,21.10
2018-09-26T11:36:32.233Z,20.60
2018-09-26T11:41:27.327Z,19.90
2018-09-26T11:46:21.958Z,19.70
2018-09-26T11:51:17.115Z,19.70
2018-09-26T11:56:11.312Z,19.70
2018-09-26T12:01:06.754Z,19.70
2018-09-26T12:06:08.862Z,19.20
2018-09-26T12:11:04.519Z,19.20
2018-09-26T12:15:58.982Z,19.10
2018-09-26T12:20:55.131Z,19.10
2018-09-26T12:25:50.934Z,19.10
2018-09-26T12:30:45.537Z,19.30
2018-09-26T12:35:42.681Z,19.70
2018-09-26T12:40:37.654Z,19.30
2018-09-26T12:45:33.646Z,19.20
2018-09-26T12:50:27.945Z,19.10
2018-09-26T12:55:24.304Z,19.20
2018-09-26T13:00:18.705Z,19.60
2018-09-26T13:05:15.148Z,19.90
2018-09-26T13:10:09.912Z,19.70
2018-09-26T13:15:05.220Z,19.60
2018-09-26T13:19:59.539Z,19.70
2018-09-26T13:25:03.235Z,20.20
2018-09-26T13:29:58.361Z,20.20
2018-09-26T13:34:53.689Z,20.40
2018-09-26T13:39:48.660Z,20.40
2018-09-26T13:44:45.346Z,20.10
2018-09-26T13:49:48.101Z,20.00
2018-09-26T13:54:44.901Z,19.90
2018-09-26T13:59:43.646Z,19.90
2018-09-26T14:04:38.813Z,20.10
2018-09-26T14:09:33.009Z,20.00
2018-09-26T14:14:36.552Z,20.10
2018-09-26T14:19:33.023Z,20.00
2018-09-26T14:24:28.342Z,20.10
2018-09-26T14:29:24.241Z,20.00
2018-09-26T14:34:19.132Z,19.80
2018-09-26T14:39:14.525Z,19.70
2018-09-26T14:44:09.735Z,19.80
2018-09-26T14:49:07.447Z,19.60
2018-09-26T14:54:04.265Z,19.30
2018-09-26T14:58:58.736Z,19.10
2018-09-26T15:03:54.580Z,19.00
2018-09-26T15:08:52.186Z,18.90
2018-09-26T15:13:49.141Z,18.80
2018-09-26T15:18:46.133Z,18.70
2018-09-26T15:23:42.849Z,18.50
2018-09-26T15:28:38.687Z,18.30
2018-09-26T15:33:33.960Z,18.10
2018-09-26T15:38:30.213Z,18.00
2018-09-26T15:43:25.922Z,17.90
2018-09-26T15:48:20.779Z,17.70
2018-09-26T15:53:15.761Z,17.70
2018-09-26T15:58:11.010Z,17.50
2018-09-26T16:03:06.453Z,17.40
2018-09-26T16:08:01.369Z,17.30
2018-09-26T16:12:55.569Z,17.10
2018-09-26T16:17:51.937Z,17.00
2018-09-26T16:22:46.260Z,16.90
2018-09-26T16:27:41.590Z,16.60
2018-09-26T16:32:38.865Z,16.50
2018-09-26T16:37:34.396Z,16.20
2018-09-26T16:42:29.273Z,16.10
2018-09-26T16:47:24.984Z,15.90
2018-09-26T16:52:21.595Z,15.70
2018-09-26T16:57:18.658Z,15.50
2018-09-26T17:02:13.180Z,15.30
2018-09-26T17:07:07.535Z,15.20
2018-09-26T17:12:02.317Z,15.10
2018-09-26T17:16:56.652Z,15.00
2018-09-26T17:21:51.203Z,14.80
2018-09-26T17:26:48.214Z,14.60
2018-09-26T17:31:42.668Z,14.60
2018-09-26T17:36:40.474Z,14.50
2018-09-26T17:41:36.649Z,14.40
2018-09-26T17:46:32.173Z,14.20
2018-09-26T17:51:26.910Z,14.10
2018-09-26T17:56:22.854Z,13.90
2018-09-26T18:01:18.184Z,13.90
2018-09-26T18:06:14.490Z,13.70
2018-09-26T18:11:09.041Z,13.60
2018-09-26T18:16:05.269Z,13.50
2018-09-26T18:21:00.775Z,13.40
2018-09-26T18:25:56.637Z,13.20
2018-09-26T18:30:51.318Z,13.20
2018-09-26T18:35:47.221Z,13.10
2018-09-26T18:40:42.396Z,13.10
2018-09-26T18:45:37.429Z,12.90
2018-09-26T18:50:32.384Z,12.90
2018-09-26T18:55:27.155Z,12.80
2018-09-26T19:00:21.599Z,12.80
2018-09-26T19:05:17.671Z,12.70
2018-09-26T19:10:12.364Z,12.60
2018-09-26T19:15:06.756Z,12.40
2018-09-26T19:20:00.925Z,12.30
2018-09-26T19:24:57.462Z,12.30
2018-09-26T19:29:54.620Z,12.30
2018-09-26T19:34:57.246Z,12.20
2018-09-26T19:39:52.821Z,12.10
2018-09-26T19:44:47.270Z,12.20
2018-09-26T19:49:42.142Z,12.10
2018-09-26T19:54:37.882Z,12.20
2018-09-26T19:59:34.137Z,12.20
2018-09-26T20:04:28.641Z,12.10
2018-09-26T20:09:24.120Z,12.10
2018-09-26T20:14:21.828Z,12.10
2018-09-26T20:19:18.774Z,12.10
2018-09-26T20:24:13.174Z,12.00
2018-09-26T20:29:07.976Z,11.90
2018-09-26T20:34:08.796Z,11.80
2018-09-26T20:39:10.804Z,11.70
2018-09-26T20:44:07.170Z,11.80
2018-09-26T20:49:04.482Z,11.70
2018-09-26T20:53:59.900Z,11.80
2018-09-26T20:58:59.622Z,12.00
2018-09-26T21:03:54.257Z,12.30
2018-09-26T21:08:48.630Z,12.40
2018-09-26T21:13:45.217Z,12.60
2018-09-26T21:18:47.957Z,12.60
2018-09-26T21:23:42.803Z,12.60
2018-09-26T21:28:37.435Z,12.70
2018-09-26T21:33:31.840Z,12.90
2018-09-26T21:38:26.023Z,13.00
2018-09-26T21:43:22.550Z,13.00
2018-09-26T21:48:18.667Z,13.00
2018-09-26T21:53:13.488Z,13.10
2018-09-26T21:58:08.367Z,13.30
2018-09-26T22:03:26.460Z,13.40
2018-09-26T22:08:22.088Z,13.60
2018-09-26T22:13:16.213Z,13.70
2018-09-26T22:18:12.099Z,13.90
2018-09-26T22:23:07.426Z,14.10
2018-09-26T22:28:03.636Z,14.10
2018-09-26T22:32:59.516Z,14.20
2018-09-26T22:37:55.029Z,14.30
2018-09-26T22:42:48.945Z,14.40
2018-09-26T22:47:45.317Z,14.50
2018-09-26T22:52:39.921Z,14.50
2018-09-26T22:57:35.172Z,14.50
2018-09-26T23:02:30.056Z,14.60
2018-09-26T23:07:25.843Z,14.60
2018-09-26T23:12:21.357Z,14.80
2018-09-26T23:17:15.686Z,14.90
2018-09-26T23:22:09.639Z,15.00
2018-09-26T23:27:06.056Z,15.10
2018-09-26T23:32:00.283Z,15.10
2018-09-26T23:36:56.074Z,15.10
2018-09-26T23:41:51.664Z,15.20
2018-09-26T23:46:47.040Z,15.20
2018-09-26T23:51:41.841Z,15.10
2018-09-26T23:56:36.639Z,15.10
